• Join FlightAware (Why Join?)
  • Login
  • US Flag 
08:23PM EDT


 

Airport Tracker/Info


-or-


 

Live Flight TrackerFlight Track Log ✈ AWE3417 ✈ 22-Apr-2013 ✈ KMHT - KDCA

Flight Track Log - Related Links

Times and Time Zones

All times are in EDT time to prevent confusion due to time zone crossing. See the AWE3417 flight status page for this flight to view local times or setup timezone preferences in your user account.

Time Position Orientation Groundspeed Altitude Reporting Facility
EDT Latitude Longitude Course Direction KTS MPH feet Rate Location/Type
05:56PM 42.9500 -71.4167 200° South 145 167 1,300  Level KA90
05:58PM 43.0286 -71.3381 36° Northeast 244 281 6,000 2,700 Climbing Boston Center
05:59PM 43.0602 -70.9563 140° Southeast  Level FlightAware Approximate
05:59PM 43.0400 -71.2383 81° East 237 273 9,300  Level Boston Center
06:00PM 42.9830 -70.8669 200° South  Level FlightAware Approximate
06:00PM 43.0558 -71.1386 78° East 269 310 11,600  Level Boston Center
06:01PM 42.8878 -70.9145 200° South  Level FlightAware Approximate
06:01PM 43.0792 -71.0103 76° East 309 356 14,600  Level Boston Center
06:02PM 43.0281 -70.9233 129° Southeast 303 349 16,900 1,680 Climbing Boston Center
06:03PM 42.9319 -70.9058 172° South 281 323 18,000 600 Climbing Boston Center
06:04PM 42.8533 -70.9475 201° Southwest 291 335 18,100  Climbing Boston Center
06:05PM 42.7519 -70.9981 200° South 349 402 18,100  Level Boston Center
06:06PM 42.6753 -71.0339 199° South 365 420 18,100  Level Boston Center
06:07PM 42.5633 -71.0869 199° South 365 420 18,100  Level Boston Center
06:08PM 42.4761 -71.1283 199° South 365 420 18,100  Level Boston Center
06:09PM 42.3811 -71.1950 207° Southwest 365 420 18,100  Level Boston Center
06:10PM 42.2811 -71.2139 188° South 354 407 18,200 360 Climbing Boston Center
06:11PM 42.2019 -71.2125 179° South 364 419 18,900 900 Climbing Boston Center
06:12PM 42.1111 -71.2983 215° Southwest 352 405 20,000 540 Climbing Boston Center
06:13PM 42.0286 -71.3836 218° Southwest 358 412 20,000  Level Boston Center
06:14PM 41.9522 -71.4714 221° Southwest 363 418 20,000  Level Boston Center
06:15PM 41.8739 -71.5564 219° Southwest 368 423 20,000  Level Boston Center
06:16PM 41.7911 -71.6411 217° Southwest 378 435 20,000  Level Boston Center
06:17PM 41.7103 -71.7253 218° Southwest 378 435 20,000  Level Boston Center
06:18PM 41.6317 -71.8069 218° Southwest 378 435 20,000  Level Boston Center
06:19PM 41.5508 -71.8936 219° Southwest 373 429 20,000  Level Boston Center
06:20PM 41.4636 -71.9858 218° Southwest 373 429 20,000  Level Boston Center
06:21PM 41.3828 -72.0722 219° Southwest 373 429 20,000  Level Boston Center
06:22PM 41.3058 -72.1556 219° Southwest 373 429 20,000  Level Boston Center
06:23PM 41.2247 -72.2414 219° Southwest 373 429 20,000  Level Boston Center
06:24PM 41.1458 -72.3217 217° Southwest 373 429 20,000  Level Boston Center
06:25PM 41.0478 -72.4236 218° Southwest 373 429 20,100 1,620 Climbing Boston Center
06:26PM 40.9561 -72.5197 218° Southwest 373 429 23,900 3,180 Climbing Boston Center
06:27PM 40.8914 -72.5911 220° Southwest 344 396 26,500 2,220 Climbing Boston Center
06:28PM 40.8183 -72.6622 216° Southwest 337 388 28,400 1,680 Climbing Boston Center
06:29PM 40.7475 -72.7333 217° Southwest 326 375 29,900 780 Climbing Boston Center
06:30PM 40.6783 -72.8039 218° Southwest 326 375 30,000  Climbing Boston Center
06:31PM 40.5989 -72.8828 217° Southwest 348 400 30,000  Level Boston Center
06:32PM 40.5194 -72.9614 217° Southwest 354 407 30,000  Level Boston Center
06:33PM 40.4400 -73.0428 218° Southwest 359 413 30,000  Level Boston Center
06:34PM 40.3581 -73.1208 216° Southwest 365 420 30,000  Level Boston Center
06:36PM 40.1875 -73.3050 220° Southwest 362 417 30,000  Level Washington Center
06:37PM 40.1097 -73.3836 218° Southwest 362 417 30,000  Level Washington Center
06:38PM 40.0217 -73.4703 217° Southwest 362 417 30,000  Level Washington Center
06:39PM 39.9419 -73.5456 216° Southwest 362 417 30,000  Level Washington Center
06:40PM 39.8639 -73.6264 218° Southwest 362 417 30,000  Level Washington Center
06:41PM 39.7861 -73.7067 218° Southwest 362 417 30,000  Level Washington Center
06:42PM 39.7039 -73.7844 216° Southwest 362 417 30,000  Level Washington Center
06:43PM 39.6261 -73.8644 218° Southwest 362 417 30,000  Level Washington Center
06:44PM 39.5458 -73.9419 217° Southwest 362 417 30,000  Level Washington Center
06:45PM 39.4739 -74.0108 216° Southwest 362 417 30,000 -660 Level Washington Center
06:46PM 39.3936 -74.0903 217° Southwest 362 417 28,700 -1,680 Descending Washington Center
06:47PM 39.3133 -74.1672 217° Southwest 362 417 26,700 -1,920 Descending Washington Center
06:48PM 39.2369 -74.2436 218° Southwest 362 417 24,900 -1,860 Descending Washington Center
06:49PM 39.1586 -74.3200 217° Southwest 362 417 23,000 -1,980 Descending Washington Center
06:50PM 39.0781 -74.3992 217° Southwest 362 417 21,000 -2,040 Descending Washington Center
06:51PM 38.9978 -74.4778 217° Southwest 362 417 19,000 -1,680 Descending Washington Center
06:52PM 38.9297 -74.5722 227° Southwest 362 417 17,700 -1,500 Descending Washington Center
06:53PM 38.9078 -74.6981 257° West 341 392 16,000 -900 Descending Washington Center
06:54PM 38.8858 -74.8183 257° West 346 398 16,000  Level Washington Center
06:55PM 38.8656 -74.9411 258° West 346 398 16,000  Level Washington Center
06:56PM 38.8558 -75.0664 264° West 353 406 16,000  Level Washington Center
06:57PM 38.8439 -75.1919 263° West 353 406 16,000  Level Washington Center
06:58PM 38.8317 -75.3144 263° West 353 406 16,000  Level Washington Center
06:59PM 38.8194 -75.4397 263° West 353 406 16,000  Level Washington Center
07:00PM 38.8069 -75.5597 262° West 353 406 16,000  Level Washington Center
07:01PM 38.7944 -75.6850 263° West 353 406 16,000 -180 Level Washington Center
07:02PM 38.7817 -75.8100 263° West 353 406 15,700 -1,440 Descending Washington Center
07:03PM 38.7689 -75.9272 262° West 353 406 13,200 -2,340 Descending Washington Center
07:04PM 38.7561 -76.0442 262° West 348 400 11,100 -1,140 Descending Washington Center
07:05PM 38.7619 -76.1586 274° West 338 389 11,000 -120 Descending Washington Center
07:06PM 38.7697 -76.2811 275° West 338 389 10,900 -120 Descending Washington Center
07:07PM 38.7814 -76.3958 277° West 332 382 10,800 -540 Descending Washington Center
07:08PM 38.7953 -76.4972 280° West 314 361 9,900 -420 Descending Washington Center
07:09PM 38.8069 -76.5933 279° West 292 336 10,000  Climbing Washington Center
07:10PM 38.8167 -76.6919 277° West 286 329 10,000 -960 Level Washington Center
07:13PM 38.7667 -76.8667 250° West 231 266 7,000 -1,980 Descending Potomac TRACON
07:14PM 38.7333 -76.9333 237° Southwest 236 272 3,800 -2,400 Descending Potomac TRACON
07:15PM 38.7500 -77.0000 288° West 207 238 2,300 -1,500 Descending Potomac TRACON